sensor_id;sensor_type;location;lat;lon;timestamp;P1;durP1;ratioP1;P2;durP2;ratioP2
41683;SDS011;27369;52.030;4.586;2023-04-24T00:02:06;0.80;;;0.43;;
41683;SDS011;27369;52.030;4.586;2023-04-24T00:04:31;0.17;;;0.17;;
41683;SDS011;27369;52.030;4.586;2023-04-24T00:09:24;3.28;;;0.65;;
41683;SDS011;27369;52.030;4.586;2023-04-24T00:11:50;0.50;;;0.13;;
41683;SDS011;27369;52.030;4.586;2023-04-24T00:14:16;0.25;;;0.25;;
41683;SDS011;27369;52.030;4.586;2023-04-24T00:16:41;0.43;;;0.28;;
41683;SDS011;27369;52.030;4.586;2023-04-24T00:19:06;0.30;;;0.30;;
41683;SDS011;27369;52.030;4.586;2023-04-24T00:21:32;0.10;;;0.10;;
41683;SDS011;27369;52.030;4.586;2023-04-24T00:23:58;0.00;;;0.00;;
41683;SDS011;27369;52.030;4.586;2023-04-24T00:26:24;0.93;;;0.65;;
41683;SDS011;27369;52.030;4.586;2023-04-24T00:28:50;0.40;;;0.38;;
41683;SDS011;27369;52.030;4.586;2023-04-24T00:31:15;0.17;;;0.17;;
41683;SDS011;27369;52.030;4.586;2023-04-24T00:33:41;0.38;;;0.38;;
41683;SDS011;27369;52.030;4.586;2023-04-24T00:36:06;0.00;;;0.00;;
41683;SDS011;27369;52.030;4.586;2023-04-24T00:38:32;0.20;;;0.20;;
41683;SDS011;27369;52.030;4.586;2023-04-24T00:40:57;0.20;;;0.20;;
41683;SDS011;27369;52.030;4.586;2023-04-24T00:43:23;0.00;;;0.00;;
41683;SDS011;27369;52.030;4.586;2023-04-24T00:45:48;0.00;;;0.00;;
41683;SDS011;27369;52.030;4.586;2023-04-24T00:48:14;0.10;;;0.10;;
41683;SDS011;27369;52.030;4.586;2023-04-24T00:50:40;0.05;;;0.00;;
41683;SDS011;27369;52.030;4.586;2023-04-24T00:55:32;0.30;;;0.30;;
41683;SDS011;27369;52.030;4.586;2023-04-24T00:57:57;0.82;;;0.50;;
41683;SDS011;27369;52.030;4.586;2023-04-24T01:00:23;1.08;;;0.30;;
41683;SDS011;27369;52.030;4.586;2023-04-24T01:02:49;0.10;;;0.10;;
41683;SDS011;27369;52.030;4.586;2023-04-24T01:05:16;0.00;;;0.00;;
41683;SDS011;27369;52.030;4.586;2023-04-24T01:07:43;0.20;;;0.15;;
41683;SDS011;27369;52.030;4.586;2023-04-24T01:10:11;0.77;;;0.77;;
41683;SDS011;27369;52.030;4.586;2023-04-24T01:12:38;0.00;;;0.00;;
41683;SDS011;27369;52.030;4.586;2023-04-24T01:15:04;0.10;;;0.10;;
41683;SDS011;27369;52.030;4.586;2023-04-24T01:17:31;0.10;;;0.10;;
41683;SDS011;27369;52.030;4.586;2023-04-24T01:19:57;0.90;;;0.43;;
41683;SDS011;27369;52.030;4.586;2023-04-24T01:22:24;0.10;;;0.10;;
41683;SDS011;27369;52.030;4.586;2023-04-24T01:24:51;0.10;;;0.10;;
41683;SDS011;27369;52.030;4.586;2023-04-24T01:27:17;0.03;;;0.03;;
41683;SDS011;27369;52.030;4.586;2023-04-24T01:29:42;0.00;;;0.00;;
41683;SDS011;27369;52.030;4.586;2023-04-24T01:32:07;0.00;;;0.00;;
41683;SDS011;27369;52.030;4.586;2023-04-24T01:34:33;0.00;;;0.00;;
41683;SDS011;27369;52.030;4.586;2023-04-24T01:36:59;0.40;;;0.10;;
41683;SDS011;27369;52.030;4.586;2023-04-24T01:39:25;0.00;;;0.00;;
41683;SDS011;27369;52.030;4.586;2023-04-24T01:41:53;0.10;;;0.10;;
41683;SDS011;27369;52.030;4.586;2023-04-24T01:46:45;0.00;;;0.00;;
41683;SDS011;27369;52.030;4.586;2023-04-24T01:49:10;0.15;;;0.15;;
41683;SDS011;27369;52.030;4.586;2023-04-24T01:51:36;0.45;;;0.35;;
41683;SDS011;27369;52.030;4.586;2023-04-24T01:54:01;0.13;;;0.13;;
41683;SDS011;27369;52.030;4.586;2023-04-24T01:56:28;0.00;;;0.00;;
41683;SDS011;27369;52.030;4.586;2023-04-24T01:58:55;0.00;;;0.00;;
41683;SDS011;27369;52.030;4.586;2023-04-24T02:03:48;0.03;;;0.03;;
41683;SDS011;27369;52.030;4.586;2023-04-24T02:06:14;0.00;;;0.00;;
41683;SDS011;27369;52.030;4.586;2023-04-24T02:08:39;0.68;;;0.40;;
41683;SDS011;27369;52.030;4.586;2023-04-24T02:11:05;0.10;;;0.10;;
41683;SDS011;27369;52.030;4.586;2023-04-24T02:13:30;0.00;;;0.00;;
41683;SDS011;27369;52.030;4.586;2023-04-24T02:15:57;0.10;;;0.10;;
41683;SDS011;27369;52.030;4.586;2023-04-24T02:18:23;0.00;;;0.00;;
41683;SDS011;27369;52.030;4.586;2023-04-24T02:20:48;0.00;;;0.00;;
41683;SDS011;27369;52.030;4.586;2023-04-24T02:23:14;1.25;;;0.90;;
41683;SDS011;27369;52.030;4.586;2023-04-24T02:25:40;0.00;;;0.00;;
41683;SDS011;27369;52.030;4.586;2023-04-24T02:28:05;0.00;;;0.00;;
41683;SDS011;27369;52.030;4.586;2023-04-24T02:30:31;0.10;;;0.10;;
41683;SDS011;27369;52.030;4.586;2023-04-24T02:32:56;0.00;;;0.00;;
41683;SDS011;27369;52.030;4.586;2023-04-24T02:35:22;0.00;;;0.00;;
41683;SDS011;27369;52.030;4.586;2023-04-24T02:37:47;0.10;;;0.10;;
41683;SDS011;27369;52.030;4.586;2023-04-24T02:40:13;0.10;;;0.10;;
41683;SDS011;27369;52.030;4.586;2023-04-24T02:42:38;2.55;;;0.85;;
41683;SDS011;27369;52.030;4.586;2023-04-24T02:45:04;0.55;;;0.52;;
41683;SDS011;27369;52.030;4.586;2023-04-24T02:47:30;0.20;;;0.20;;
41683;SDS011;27369;52.030;4.586;2023-04-24T02:49:55;0.13;;;0.13;;
41683;SDS011;27369;52.030;4.586;2023-04-24T02:52:21;0.00;;;0.00;;
41683;SDS011;27369;52.030;4.586;2023-04-24T02:54:46;0.60;;;0.40;;
41683;SDS011;27369;52.030;4.586;2023-04-24T02:57:11;0.00;;;0.00;;
41683;SDS011;27369;52.030;4.586;2023-04-24T02:59:37;0.90;;;0.20;;
41683;SDS011;27369;52.030;4.586;2023-04-24T03:02:02;0.08;;;0.08;;
41683;SDS011;27369;52.030;4.586;2023-04-24T03:04:28;0.00;;;0.00;;
41683;SDS011;27369;52.030;4.586;2023-04-24T03:06:53;0.00;;;0.00;;
41683;SDS011;27369;52.030;4.586;2023-04-24T03:09:20;0.15;;;0.15;;
41683;SDS011;27369;52.030;4.586;2023-04-24T03:11:48;0.03;;;0.00;;
41683;SDS011;27369;52.030;4.586;2023-04-24T03:14:14;0.03;;;0.03;;
41683;SDS011;27369;52.030;4.586;2023-04-24T03:16:40;0.28;;;0.13;;
41683;SDS011;27369;52.030;4.586;2023-04-24T03:19:05;0.20;;;0.20;;
41683;SDS011;27369;52.030;4.586;2023-04-24T03:21:31;1.05;;;0.35;;
41683;SDS011;27369;52.030;4.586;2023-04-24T03:23:56;1.15;;;0.10;;
41683;SDS011;27369;52.030;4.586;2023-04-24T03:26:21;0.10;;;0.10;;
41683;SDS011;27369;52.030;4.586;2023-04-24T03:28:47;0.00;;;0.00;;
41683;SDS011;27369;52.030;4.586;2023-04-24T03:31:12;0.63;;;0.57;;
41683;SDS011;27369;52.030;4.586;2023-04-24T03:33:37;0.52;;;0.32;;
41683;SDS011;27369;52.030;4.586;2023-04-24T03:36:03;0.32;;;0.32;;
41683;SDS011;27369;52.030;4.586;2023-04-24T03:38:30;1.17;;;0.40;;
41683;SDS011;27369;52.030;4.586;2023-04-24T03:40:55;0.70;;;0.30;;
41683;SDS011;27369;52.030;4.586;2023-04-24T03:43:20;0.10;;;0.10;;
41683;SDS011;27369;52.030;4.586;2023-04-24T03:45:46;3.42;;;0.35;;
41683;SDS011;27369;52.030;4.586;2023-04-24T03:48:11;0.15;;;0.15;;
41683;SDS011;27369;52.030;4.586;2023-04-24T03:50:37;0.00;;;0.00;;
41683;SDS011;27369;52.030;4.586;2023-04-24T03:53:02;0.00;;;0.00;;
41683;SDS011;27369;52.030;4.586;2023-04-24T03:55:28;0.00;;;0.00;;
41683;SDS011;27369;52.030;4.586;2023-04-24T03:57:54;0.00;;;0.00;;
41683;SDS011;27369;52.030;4.586;2023-04-24T04:00:19;0.00;;;0.00;;
41683;SDS011;27369;52.030;4.586;2023-04-24T04:05:11;0.67;;;0.33;;
41683;SDS011;27369;52.030;4.586;2023-04-24T04:07:36;0.20;;;0.20;;
41683;SDS011;27369;52.030;4.586;2023-04-24T04:10:02;0.10;;;0.10;;
41683;SDS011;27369;52.030;4.586;2023-04-24T04:12:28;0.20;;;0.20;;
41683;SDS011;27369;52.030;4.586;2023-04-24T04:14:53;0.00;;;0.00;;
41683;SDS011;27369;52.030;4.586;2023-04-24T04:17:19;0.28;;;0.28;;
41683;SDS011;27369;52.030;4.586;2023-04-24T04:19:44;0.63;;;0.63;;
41683;SDS011;27369;52.030;4.586;2023-04-24T04:22:10;0.73;;;0.68;;
41683;SDS011;27369;52.030;4.586;2023-04-24T04:24:35;0.63;;;0.63;;
41683;SDS011;27369;52.030;4.586;2023-04-24T04:27:03;0.30;;;0.20;;
41683;SDS011;27369;52.030;4.586;2023-04-24T04:29:30;0.00;;;0.00;;
41683;SDS011;27369;52.030;4.586;2023-04-24T04:31:56;0.47;;;0.20;;
41683;SDS011;27369;52.030;4.586;2023-04-24T04:34:22;0.10;;;0.10;;
41683;SDS011;27369;52.030;4.586;2023-04-24T04:36:47;0.30;;;0.20;;
41683;SDS011;27369;52.030;4.586;2023-04-24T04:39:13;0.55;;;0.17;;
41683;SDS011;27369;52.030;4.586;2023-04-24T04:41:40;0.00;;;0.00;;
41683;SDS011;27369;52.030;4.586;2023-04-24T04:44:06;0.70;;;0.35;;
41683;SDS011;27369;52.030;4.586;2023-04-24T04:46:33;0.20;;;0.10;;
41683;SDS011;27369;52.030;4.586;2023-04-24T04:48:59;0.90;;;0.60;;
41683;SDS011;27369;52.030;4.586;2023-04-24T04:51:26;0.20;;;0.20;;
41683;SDS011;27369;52.030;4.586;2023-04-24T04:53:52;0.00;;;0.00;;
41683;SDS011;27369;52.030;4.586;2023-04-24T04:56:18;1.60;;;0.50;;
41683;SDS011;27369;52.030;4.586;2023-04-24T04:58:43;0.55;;;0.43;;
41683;SDS011;27369;52.030;4.586;2023-04-24T05:01:08;0.95;;;0.55;;
41683;SDS011;27369;52.030;4.586;2023-04-24T05:03:34;1.23;;;0.60;;
41683;SDS011;27369;52.030;4.586;2023-04-24T05:05:59;3.45;;;1.40;;
41683;SDS011;27369;52.030;4.586;2023-04-24T05:08:25;1.23;;;1.10;;
41683;SDS011;27369;52.030;4.586;2023-04-24T05:10:50;0.35;;;0.30;;
41683;SDS011;27369;52.030;4.586;2023-04-24T05:13:15;1.10;;;1.00;;
41683;SDS011;27369;52.030;4.586;2023-04-24T05:15:41;2.80;;;1.20;;
41683;SDS011;27369;52.030;4.586;2023-04-24T05:18:06;1.33;;;1.23;;
41683;SDS011;27369;52.030;4.586;2023-04-24T05:20:32;3.38;;;2.00;;
41683;SDS011;27369;52.030;4.586;2023-04-24T05:22:57;1.90;;;1.33;;
41683;SDS011;27369;52.030;4.586;2023-04-24T05:25:22;2.83;;;1.67;;
41683;SDS011;27369;52.030;4.586;2023-04-24T05:27:48;3.50;;;3.20;;
41683;SDS011;27369;52.030;4.586;2023-04-24T05:30:13;5.85;;;2.63;;
41683;SDS011;27369;52.030;4.586;2023-04-24T05:32:39;3.15;;;2.30;;
41683;SDS011;27369;52.030;4.586;2023-04-24T05:35:04;1.40;;;1.30;;
41683;SDS011;27369;52.030;4.586;2023-04-24T05:37:30;5.18;;;3.55;;
41683;SDS011;27369;52.030;4.586;2023-04-24T05:39:55;4.03;;;2.20;;
41683;SDS011;27369;52.030;4.586;2023-04-24T05:42:21;4.68;;;2.63;;
41683;SDS011;27369;52.030;4.586;2023-04-24T05:44:46;5.18;;;1.58;;
41683;SDS011;27369;52.030;4.586;2023-04-24T05:47:12;4.15;;;2.40;;
41683;SDS011;27369;52.030;4.586;2023-04-24T05:49:37;4.50;;;2.72;;
41683;SDS011;27369;52.030;4.586;2023-04-24T05:52:03;3.08;;;2.42;;
41683;SDS011;27369;52.030;4.586;2023-04-24T05:54:30;1.65;;;1.50;;
41683;SDS011;27369;52.030;4.586;2023-04-24T05:56:55;4.50;;;1.58;;
41683;SDS011;27369;52.030;4.586;2023-04-24T05:59:21;9.93;;;3.38;;
41683;SDS011;27369;52.030;4.586;2023-04-24T06:01:46;1.67;;;1.27;;
41683;SDS011;27369;52.030;4.586;2023-04-24T06:04:12;5.68;;;2.15;;
41683;SDS011;27369;52.030;4.586;2023-04-24T06:09:04;3.63;;;2.07;;
41683;SDS011;27369;52.030;4.586;2023-04-24T06:11:29;3.42;;;2.28;;
41683;SDS011;27369;52.030;4.586;2023-04-24T06:13:55;5.20;;;2.42;;
41683;SDS011;27369;52.030;4.586;2023-04-24T06:16:21;5.70;;;1.30;;
41683;SDS011;27369;52.030;4.586;2023-04-24T06:18:46;4.88;;;1.38;;
41683;SDS011;27369;52.030;4.586;2023-04-24T06:21:12;3.95;;;1.83;;
41683;SDS011;27369;52.030;4.586;2023-04-24T06:23:37;5.22;;;2.20;;
41683;SDS011;27369;52.030;4.586;2023-04-24T06:26:03;1.17;;;1.02;;
41683;SDS011;27369;52.030;4.586;2023-04-24T06:28:29;7.70;;;2.22;;
41683;SDS011;27369;52.030;4.586;2023-04-24T06:30:54;4.90;;;2.42;;
41683;SDS011;27369;52.030;4.586;2023-04-24T06:33:19;6.93;;;2.53;;
41683;SDS011;27369;52.030;4.586;2023-04-24T06:35:45;3.88;;;2.28;;
41683;SDS011;27369;52.030;4.586;2023-04-24T06:38:10;10.18;;;2.25;;
41683;SDS011;27369;52.030;4.586;2023-04-24T06:40:36;5.60;;;2.15;;
41683;SDS011;27369;52.030;4.586;2023-04-24T06:43:01;8.15;;;2.63;;
41683;SDS011;27369;52.030;4.586;2023-04-24T06:45:28;5.35;;;2.08;;
41683;SDS011;27369;52.030;4.586;2023-04-24T06:47:54;5.00;;;1.27;;
41683;SDS011;27369;52.030;4.586;2023-04-24T06:50:19;5.07;;;2.10;;
41683;SDS011;27369;52.030;4.586;2023-04-24T06:52:45;10.20;;;2.15;;
41683;SDS011;27369;52.030;4.586;2023-04-24T06:55:10;4.55;;;1.70;;
41683;SDS011;27369;52.030;4.586;2023-04-24T06:57:36;4.53;;;1.45;;
41683;SDS011;27369;52.030;4.586;2023-04-24T07:00:02;7.22;;;1.90;;
41683;SDS011;27369;52.030;4.586;2023-04-24T07:02:28;5.53;;;1.63;;
41683;SDS011;27369;52.030;4.586;2023-04-24T07:04:53;6.38;;;1.88;;
41683;SDS011;27369;52.030;4.586;2023-04-24T07:07:19;6.55;;;2.60;;
41683;SDS011;27369;52.030;4.586;2023-04-24T07:09:46;8.65;;;2.45;;
41683;SDS011;27369;52.030;4.586;2023-04-24T07:12:11;5.93;;;1.83;;
41683;SDS011;27369;52.030;4.586;2023-04-24T07:14:37;4.88;;;1.27;;
41683;SDS011;27369;52.030;4.586;2023-04-24T07:17:03;1.73;;;0.85;;
41683;SDS011;27369;52.030;4.586;2023-04-24T07:19:29;4.50;;;1.15;;
41683;SDS011;27369;52.030;4.586;2023-04-24T07:21:55;5.03;;;1.13;;
41683;SDS011;27369;52.030;4.586;2023-04-24T07:24:23;5.05;;;1.10;;
41683;SDS011;27369;52.030;4.586;2023-04-24T07:26:48;5.88;;;1.75;;
41683;SDS011;27369;52.030;4.586;2023-04-24T07:29:17;7.57;;;1.77;;
41683;SDS011;27369;52.030;4.586;2023-04-24T07:31:42;2.25;;;1.30;;
41683;SDS011;27369;52.030;4.586;2023-04-24T07:34:07;6.50;;;1.77;;
41683;SDS011;27369;52.030;4.586;2023-04-24T07:36:33;2.28;;;0.75;;
41683;SDS011;27369;52.030;4.586;2023-04-24T07:38:58;3.88;;;1.33;;
41683;SDS011;27369;52.030;4.586;2023-04-24T07:41:24;5.10;;;2.10;;
41683;SDS011;27369;52.030;4.586;2023-04-24T07:43:50;1.40;;;0.95;;
41683;SDS011;27369;52.030;4.586;2023-04-24T07:46:15;1.90;;;1.08;;
41683;SDS011;27369;52.030;4.586;2023-04-24T07:48:41;6.50;;;2.10;;
41683;SDS011;27369;52.030;4.586;2023-04-24T07:51:07;2.25;;;1.23;;
41683;SDS011;27369;52.030;4.586;2023-04-24T07:53:35;4.75;;;1.25;;
41683;SDS011;27369;52.030;4.586;2023-04-24T07:56:00;6.70;;;1.65;;
41683;SDS011;27369;52.030;4.586;2023-04-24T07:58:25;12.77;;;2.25;;
41683;SDS011;27369;52.030;4.586;2023-04-24T08:00:51;5.10;;;1.13;;
41683;SDS011;27369;52.030;4.586;2023-04-24T08:03:16;3.92;;;1.60;;
41683;SDS011;27369;52.030;4.586;2023-04-24T08:05:44;1.75;;;1.02;;
41683;SDS011;27369;52.030;4.586;2023-04-24T08:08:09;8.52;;;1.50;;
41683;SDS011;27369;52.030;4.586;2023-04-24T08:10:35;4.05;;;1.13;;
41683;SDS011;27369;52.030;4.586;2023-04-24T08:13:00;0.95;;;0.73;;
41683;SDS011;27369;52.030;4.586;2023-04-24T08:15:27;1.95;;;0.90;;
41683;SDS011;27369;52.030;4.586;2023-04-24T08:17:52;5.53;;;1.13;;
41683;SDS011;27369;52.030;4.586;2023-04-24T08:20:18;4.78;;;1.63;;
41683;SDS011;27369;52.030;4.586;2023-04-24T08:22:43;4.20;;;1.58;;
41683;SDS011;27369;52.030;4.586;2023-04-24T08:25:09;8.82;;;2.10;;
41683;SDS011;27369;52.030;4.586;2023-04-24T08:27:36;2.92;;;0.95;;
41683;SDS011;27369;52.030;4.586;2023-04-24T08:30:02;5.95;;;1.65;;
41683;SDS011;27369;52.030;4.586;2023-04-24T08:32:28;4.00;;;1.70;;
41683;SDS011;27369;52.030;4.586;2023-04-24T08:34:54;12.73;;;1.55;;
41683;SDS011;27369;52.030;4.586;2023-04-24T08:37:21;7.70;;;1.38;;
41683;SDS011;27369;52.030;4.586;2023-04-24T08:39:51;2.83;;;0.80;;
41683;SDS011;27369;52.030;4.586;2023-04-24T08:42:17;2.40;;;1.02;;
41683;SDS011;27369;52.030;4.586;2023-04-24T08:44:44;3.63;;;1.10;;
41683;SDS011;27369;52.030;4.586;2023-04-24T08:47:10;4.10;;;1.27;;
41683;SDS011;27369;52.030;4.586;2023-04-24T08:49:36;2.30;;;0.70;;
41683;SDS011;27369;52.030;4.586;2023-04-24T08:54:28;3.47;;;0.97;;
41683;SDS011;27369;52.030;4.586;2023-04-24T08:56:55;5.28;;;1.42;;
41683;SDS011;27369;52.030;4.586;2023-04-24T08:59:26;3.75;;;1.00;;
41683;SDS011;27369;52.030;4.586;2023-04-24T09:01:53;3.25;;;0.98;;
41683;SDS011;27369;52.030;4.586;2023-04-24T09:04:20;8.38;;;1.30;;
41683;SDS011;27369;52.030;4.586;2023-04-24T09:06:47;2.80;;;0.98;;
41683;SDS011;27369;52.030;4.586;2023-04-24T09:09:14;7.03;;;1.80;;
41683;SDS011;27369;52.030;4.586;2023-04-24T09:11:41;5.82;;;1.00;;
41683;SDS011;27369;52.030;4.586;2023-04-24T09:14:07;2.95;;;0.80;;
41683;SDS011;27369;52.030;4.586;2023-04-24T09:16:35;1.00;;;0.30;;
41683;SDS011;27369;52.030;4.586;2023-04-24T09:19:00;0.55;;;0.30;;
41683;SDS011;27369;52.030;4.586;2023-04-24T09:21:30;2.90;;;0.20;;
41683;SDS011;27369;52.030;4.586;2023-04-24T09:23:58;3.28;;;0.50;;
41683;SDS011;27369;52.030;4.586;2023-04-24T09:26:25;7.63;;;0.90;;
41683;SDS011;27369;52.030;4.586;2023-04-24T09:28:50;4.85;;;0.63;;
41683;SDS011;27369;52.030;4.586;2023-04-24T09:31:16;1.65;;;0.77;;
41683;SDS011;27369;52.030;4.586;2023-04-24T09:33:54;1.85;;;0.20;;
41683;SDS011;27369;52.030;4.586;2023-04-24T09:36:32;0.70;;;0.45;;
41683;SDS011;27369;52.030;4.586;2023-04-24T09:39:09;0.08;;;0.08;;
41683;SDS011;27369;52.030;4.586;2023-04-24T09:41:46;0.90;;;0.75;;
41683;SDS011;27369;52.030;4.586;2023-04-24T09:44:13;6.03;;;0.70;;
41683;SDS011;27369;52.030;4.586;2023-04-24T09:46:42;3.45;;;0.55;;
41683;SDS011;27369;52.030;4.586;2023-04-24T09:49:15;0.80;;;0.38;;
41683;SDS011;27369;52.030;4.586;2023-04-24T09:51:41;1.15;;;0.50;;
41683;SDS011;27369;52.030;4.586;2023-04-24T09:56:44;2.72;;;0.40;;
41683;SDS011;27369;52.030;4.586;2023-04-24T09:59:11;2.35;;;0.45;;
41683;SDS011;27369;52.030;4.586;2023-04-24T10:01:37;0.93;;;0.40;;
41683;SDS011;27369;52.030;4.586;2023-04-24T10:04:03;2.58;;;0.43;;
41683;SDS011;27369;52.030;4.586;2023-04-24T10:06:35;3.30;;;0.45;;
41683;SDS011;27369;52.030;4.586;2023-04-24T10:09:01;3.30;;;0.70;;
41683;SDS011;27369;52.030;4.586;2023-04-24T10:11:28;5.35;;;0.93;;
41683;SDS011;27369;52.030;4.586;2023-04-24T10:13:55;2.17;;;0.60;;
41683;SDS011;27369;52.030;4.586;2023-04-24T10:16:22;2.30;;;0.60;;
41683;SDS011;27369;52.030;4.586;2023-04-24T10:18:48;1.02;;;0.30;;
41683;SDS011;27369;52.030;4.586;2023-04-24T10:21:14;3.97;;;0.45;;
41683;SDS011;27369;52.030;4.586;2023-04-24T10:23:41;3.22;;;0.70;;
41683;SDS011;27369;52.030;4.586;2023-04-24T10:28:42;0.57;;;0.10;;
41683;SDS011;27369;52.030;4.586;2023-04-24T10:31:10;2.30;;;0.55;;
41683;SDS011;27369;52.030;4.586;2023-04-24T10:36:03;2.38;;;0.70;;
41683;SDS011;27369;52.030;4.586;2023-04-24T10:38:29;1.35;;;0.52;;
41683;SDS011;27369;52.030;4.586;2023-04-24T10:41:08;2.80;;;0.55;;
41683;SDS011;27369;52.030;4.586;2023-04-24T10:43:35;5.22;;;0.88;;
41683;SDS011;27369;52.030;4.586;2023-04-24T10:46:04;4.18;;;0.70;;
41683;SDS011;27369;52.030;4.586;2023-04-24T10:48:31;0.57;;;0.25;;
41683;SDS011;27369;52.030;4.586;2023-04-24T10:50:57;5.25;;;1.08;;
41683;SDS011;27369;52.030;4.586;2023-04-24T10:53:24;8.57;;;1.77;;
41683;SDS011;27369;52.030;4.586;2023-04-24T10:58:37;4.43;;;1.00;;
41683;SDS011;27369;52.030;4.586;2023-04-24T11:01:05;3.30;;;0.80;;
41683;SDS011;27369;52.030;4.586;2023-04-24T11:03:32;1.92;;;0.47;;
41683;SDS011;27369;52.030;4.586;2023-04-24T11:08:38;2.88;;;0.73;;
41683;SDS011;27369;52.030;4.586;2023-04-24T11:11:12;1.75;;;1.02;;
41683;SDS011;27369;52.030;4.586;2023-04-24T11:18:49;1.00;;;0.43;;
41683;SDS011;27369;52.030;4.586;2023-04-24T11:21:18;1.52;;;0.43;;
41683;SDS011;27369;52.030;4.586;2023-04-24T11:23:47;5.05;;;0.70;;
41683;SDS011;27369;52.030;4.586;2023-04-24T11:26:13;4.30;;;0.70;;
41683;SDS011;27369;52.030;4.586;2023-04-24T11:28:46;5.05;;;0.93;;
41683;SDS011;27369;52.030;4.586;2023-04-24T11:34:06;2.33;;;0.60;;
41683;SDS011;27369;52.030;4.586;2023-04-24T11:36:36;2.50;;;0.40;;
41683;SDS011;27369;52.030;4.586;2023-04-24T11:39:02;2.10;;;0.57;;
41683;SDS011;27369;52.030;4.586;2023-04-24T11:41:27;3.85;;;0.80;;
41683;SDS011;27369;52.030;4.586;2023-04-24T11:43:53;1.52;;;0.70;;
41683;SDS011;27369;52.030;4.586;2023-04-24T11:46:23;2.80;;;0.80;;
41683;SDS011;27369;52.030;4.586;2023-04-24T11:48:51;2.30;;;0.50;;
41683;SDS011;27369;52.030;4.586;2023-04-24T11:51:16;3.10;;;0.68;;
41683;SDS011;27369;52.030;4.586;2023-04-24T11:53:42;2.85;;;0.82;;
41683;SDS011;27369;52.030;4.586;2023-04-24T11:56:08;7.20;;;1.20;;
41683;SDS011;27369;52.030;4.586;2023-04-24T11:58:37;4.50;;;1.40;;
41683;SDS011;27369;52.030;4.586;2023-04-24T12:01:04;0.75;;;0.40;;
41683;SDS011;27369;52.030;4.586;2023-04-24T12:03:30;3.88;;;1.10;;
41683;SDS011;27369;52.030;4.586;2023-04-24T12:06:06;2.90;;;1.17;;
41683;SDS011;27369;52.030;4.586;2023-04-24T12:08:32;6.85;;;1.15;;
41683;SDS011;27369;52.030;4.586;2023-04-24T12:10:59;5.93;;;1.25;;
41683;SDS011;27369;52.030;4.586;2023-04-24T12:13:26;3.60;;;1.10;;
41683;SDS011;27369;52.030;4.586;2023-04-24T12:15:51;4.10;;;1.10;;
41683;SDS011;27369;52.030;4.586;2023-04-24T12:18:17;2.00;;;0.63;;
41683;SDS011;27369;52.030;4.586;2023-04-24T12:20:43;4.53;;;1.05;;
41683;SDS011;27369;52.030;4.586;2023-04-24T12:23:08;9.63;;;1.25;;
41683;SDS011;27369;52.030;4.586;2023-04-24T12:25:34;5.35;;;1.38;;
41683;SDS011;27369;52.030;4.586;2023-04-24T12:30:28;7.43;;;1.30;;
41683;SDS011;27369;52.030;4.586;2023-04-24T12:32:56;3.67;;;0.98;;
41683;SDS011;27369;52.030;4.586;2023-04-24T12:35:24;6.28;;;1.67;;
41683;SDS011;27369;52.030;4.586;2023-04-24T12:37:51;3.03;;;0.93;;
41683;SDS011;27369;52.030;4.586;2023-04-24T12:40:17;8.70;;;1.90;;
41683;SDS011;27369;52.030;4.586;2023-04-24T12:42:47;0.95;;;0.85;;
41683;SDS011;27369;52.030;4.586;2023-04-24T12:45:14;5.72;;;1.83;;
41683;SDS011;27369;52.030;4.586;2023-04-24T12:47:40;4.10;;;0.95;;
41683;SDS011;27369;52.030;4.586;2023-04-24T12:50:08;8.48;;;1.58;;
41683;SDS011;27369;52.030;4.586;2023-04-24T12:52:34;2.75;;;0.90;;
41683;SDS011;27369;52.030;4.586;2023-04-24T12:55:00;2.75;;;0.93;;
41683;SDS011;27369;52.030;4.586;2023-04-24T12:57:27;4.30;;;0.80;;
41683;SDS011;27369;52.030;4.586;2023-04-24T12:59:54;4.60;;;1.25;;
41683;SDS011;27369;52.030;4.586;2023-04-24T13:02:22;7.82;;;2.17;;
41683;SDS011;27369;52.030;4.586;2023-04-24T13:04:51;7.40;;;2.30;;
41683;SDS011;27369;52.030;4.586;2023-04-24T13:07:17;9.23;;;2.17;;
41683;SDS011;27369;52.030;4.586;2023-04-24T13:09:43;3.80;;;1.00;;
41683;SDS011;27369;52.030;4.586;2023-04-24T13:14:35;4.57;;;1.17;;
41683;SDS011;27369;52.030;4.586;2023-04-24T13:17:01;9.30;;;1.58;;
41683;SDS011;27369;52.030;4.586;2023-04-24T13:19:27;6.18;;;1.40;;
41683;SDS011;27369;52.030;4.586;2023-04-24T13:21:56;7.18;;;1.52;;
41683;SDS011;27369;52.030;4.586;2023-04-24T13:24:25;9.43;;;0.98;;
41683;SDS011;27369;52.030;4.586;2023-04-24T13:26:51;5.15;;;1.50;;
41683;SDS011;27369;52.030;4.586;2023-04-24T13:29:21;6.07;;;0.90;;
41683;SDS011;27369;52.030;4.586;2023-04-24T13:31:49;6.25;;;0.93;;
41683;SDS011;27369;52.030;4.586;2023-04-24T13:34:15;3.58;;;1.20;;
41683;SDS011;27369;52.030;4.586;2023-04-24T13:36:41;4.10;;;1.27;;
41683;SDS011;27369;52.030;4.586;2023-04-24T13:39:06;7.72;;;1.10;;
41683;SDS011;27369;52.030;4.586;2023-04-24T13:41:32;5.82;;;1.23;;
41683;SDS011;27369;52.030;4.586;2023-04-24T13:43:58;12.00;;;1.65;;
41683;SDS011;27369;52.030;4.586;2023-04-24T13:46:23;6.20;;;1.73;;
41683;SDS011;27369;52.030;4.586;2023-04-24T13:48:49;4.88;;;1.10;;
41683;SDS011;27369;52.030;4.586;2023-04-24T13:51:15;3.35;;;1.20;;
41683;SDS011;27369;52.030;4.586;2023-04-24T13:53:40;5.78;;;1.10;;
41683;SDS011;27369;52.030;4.586;2023-04-24T13:56:06;5.15;;;1.25;;
41683;SDS011;27369;52.030;4.586;2023-04-24T13:58:31;4.47;;;1.38;;
41683;SDS011;27369;52.030;4.586;2023-04-24T14:00:57;4.85;;;1.35;;
41683;SDS011;27369;52.030;4.586;2023-04-24T14:03:23;5.78;;;1.40;;
41683;SDS011;27369;52.030;4.586;2023-04-24T14:05:48;17.83;;;3.10;;
41683;SDS011;27369;52.030;4.586;2023-04-24T14:08:13;3.83;;;1.52;;
41683;SDS011;27369;52.030;4.586;2023-04-24T14:10:39;9.63;;;1.77;;
41683;SDS011;27369;52.030;4.586;2023-04-24T14:13:04;12.27;;;2.60;;
41683;SDS011;27369;52.030;4.586;2023-04-24T14:15:30;9.32;;;2.28;;
41683;SDS011;27369;52.030;4.586;2023-04-24T14:17:56;3.40;;;1.90;;
41683;SDS011;27369;52.030;4.586;2023-04-24T14:20:22;2.75;;;2.00;;
41683;SDS011;27369;52.030;4.586;2023-04-24T14:22:47;2.20;;;0.88;;
41683;SDS011;27369;52.030;4.586;2023-04-24T14:25:13;4.55;;;2.20;;
41683;SDS011;27369;52.030;4.586;2023-04-24T14:27:38;2.90;;;1.83;;
41683;SDS011;27369;52.030;4.586;2023-04-24T14:32:30;11.27;;;3.07;;
41683;SDS011;27369;52.030;4.586;2023-04-24T14:34:56;3.40;;;1.70;;
41683;SDS011;27369;52.030;4.586;2023-04-24T14:37:21;7.30;;;2.55;;
41683;SDS011;27369;52.030;4.586;2023-04-24T14:39:47;8.05;;;2.38;;
41683;SDS011;27369;52.030;4.586;2023-04-24T14:42:12;8.60;;;1.95;;
41683;SDS011;27369;52.030;4.586;2023-04-24T14:44:38;6.90;;;2.33;;
41683;SDS011;27369;52.030;4.586;2023-04-24T14:47:04;9.02;;;2.83;;
41683;SDS011;27369;52.030;4.586;2023-04-24T14:51:55;3.93;;;1.90;;
41683;SDS011;27369;52.030;4.586;2023-04-24T14:54:21;4.30;;;1.63;;
41683;SDS011;27369;52.030;4.586;2023-04-24T14:56:48;8.80;;;2.67;;
41683;SDS011;27369;52.030;4.586;2023-04-24T14:59:14;6.80;;;1.85;;
41683;SDS011;27369;52.030;4.586;2023-04-24T15:01:39;7.53;;;1.88;;
41683;SDS011;27369;52.030;4.586;2023-04-24T15:04:05;2.67;;;1.33;;
41683;SDS011;27369;52.030;4.586;2023-04-24T15:06:31;5.93;;;1.33;;
41683;SDS011;27369;52.030;4.586;2023-04-24T15:08:57;3.88;;;1.70;;
41683;SDS011;27369;52.030;4.586;2023-04-24T15:11:23;7.43;;;1.48;;
41683;SDS011;27369;52.030;4.586;2023-04-24T15:13:48;7.32;;;1.70;;
41683;SDS011;27369;52.030;4.586;2023-04-24T15:16:14;6.60;;;2.45;;
41683;SDS011;27369;52.030;4.586;2023-04-24T15:18:40;7.57;;;2.58;;
41683;SDS011;27369;52.030;4.586;2023-04-24T15:21:05;7.93;;;1.75;;
41683;SDS011;27369;52.030;4.586;2023-04-24T15:23:31;3.85;;;1.75;;
41683;SDS011;27369;52.030;4.586;2023-04-24T15:25:56;5.90;;;1.13;;
41683;SDS011;27369;52.030;4.586;2023-04-24T15:28:22;5.00;;;1.58;;
41683;SDS011;27369;52.030;4.586;2023-04-24T15:30:48;7.55;;;2.47;;